Time;durP1;ratioP1;P1;durP2;ratioP2;P2;SDS_P1;SDS_P2;PMS_P1;PMS_P2;Temp;Humidity;BMP_temperature;BMP_pressure;BME280_temperature;BME280_humidity;BME280_pressure;Samples;Min_cycle;Max_cycle;Signal;HPM_P1;HPM_P2
2023/07/29 00:00:51;;;;;;;17.30;10.00;;;17.80;99.90;;;;;;6133925;23;20021;-87
2023/07/29 00:03:17;;;;;;;17.77;10.25;;;17.80;99.90;;;;;;6160097;23;20024;-86
2023/07/29 00:05:58;;;;;;;20.40;10.88;;;17.80;99.90;;;;;;6134286;23;20021;-87
2023/07/29 00:08:24;;;;;;;21.98;11.93;;;17.70;99.90;;;;;;6132745;23;20018;-87
2023/07/29 00:10:50;;;;;;;20.92;11.65;;;17.70;99.90;;;;;;6158955;23;20024;-87
2023/07/29 00:13:31;;;;;;;20.52;12.75;;;17.70;99.90;;;;;;6158347;23;20010;-87
2023/07/29 00:15:56;;;;;;;21.60;13.07;;;17.80;99.90;;;;;;6131943;23;20021;-87
2023/07/29 00:18:23;;;;;;;18.75;11.48;;;17.80;99.90;;;;;;6133150;23;20032;-87
2023/07/29 00:21:03;;;;;;;19.88;12.45;;;17.80;99.90;;;;;;6132815;23;20033;-87
2023/07/29 00:23:45;;;;;;;21.40;12.80;;;17.90;99.90;;;;;;6158841;23;20013;-86
2023/07/29 00:26:10;;;;;;;20.38;12.43;;;17.90;99.90;;;;;;6159392;23;20076;-87
2023/07/29 00:28:37;;;;;;;22.35;12.20;;;17.90;99.90;;;;;;6158368;23;20556;-87
2023/07/29 00:31:02;;;;;;;20.33;12.60;;;18.00;99.90;;;;;;6131620;23;20029;-86
2023/07/29 00:33:28;;;;;;;21.95;13.30;;;18.00;99.90;;;;;;6156347;23;20014;-87
2023/07/29 00:36:09;;;;;;;22.63;13.98;;;18.00;99.90;;;;;;6127985;23;20025;-87
2023/07/29 00:38:35;;;;;;;22.73;12.95;;;18.00;99.90;;;;;;6129446;23;20028;-87
2023/07/29 00:41:03;;;;;;;23.27;14.60;;;18.00;99.90;;;;;;6155375;23;20009;-87
2023/07/29 00:43:50;;;;;;;23.25;13.80;;;18.00;99.90;;;;;;6129579;23;20087;-87
2023/07/29 00:46:16;;;;;;;22.92;14.35;;;18.00;99.90;;;;;;6128710;23;20028;-87
2023/07/29 00:48:42;;;;;;;23.83;14.35;;;18.00;99.90;;;;;;6154773;23;20342;-87
2023/07/29 00:51:26;;;;;;;25.27;15.23;;;18.00;99.90;;;;;;6154450;23;20018;-86
2023/07/29 00:53:51;;;;;;;;;;;17.90;99.90;;;;;;6129508;23;20029;-87
2023/07/29 00:56:32;;;;;;;24.70;15.35;;;17.90;99.90;;;;;;6128525;23;19917;-87
2023/07/29 00:59:07;;;;;;;24.48;14.60;;;17.90;99.90;;;;;;6128788;23;20022;-87
2023/07/29 01:01:33;;;;;;;23.10;14.35;;;17.80;99.90;;;;;;6129363;23;20010;-87
2023/07/29 01:04:08;;;;;;;23.67;14.55;;;17.80;99.90;;;;;;6154213;23;20096;-87
2023/07/29 01:06:59;;;;;;;22.70;14.43;;;17.80;99.90;;;;;;6158507;23;20393;-87
2023/07/29 01:09:50;;;;;;;23.85;14.82;;;17.90;99.90;;;;;;6155991;23;20068;-87
2023/07/29 01:12:48;;;;;;;22.63;14.63;;;17.80;99.90;;;;;;6155950;23;20076;-87
2023/07/29 01:15:32;;;;;;;23.48;13.90;;;17.80;99.90;;;;;;6129726;23;20104;-87
2023/07/29 01:18:27;;;;;;;22.05;13.32;;;17.70;99.90;;;;;;6154619;23;20018;-87
2023/07/29 01:21:03;;;;;;;20.23;12.63;;;17.80;99.90;;;;;;6155265;23;20020;-87
2023/07/29 01:23:35;;;;;;;23.27;14.05;;;17.70;99.90;;;;;;6130055;23;20021;-87
2023/07/29 01:26:13;;;;;;;20.00;12.93;;;17.70;99.90;;;;;;6131686;23;20040;-87
2023/07/29 01:29:04;;;;;;;21.60;12.98;;;17.60;99.90;;;;;;6101198;23;20025;-87
2023/07/29 01:32:09;;;;;;;19.65;12.18;;;16.90;99.90;;;;;;6100043;23;20018;-87
2023/07/29 01:35:16;;;;;;;22.70;12.35;;;17.80;99.90;;;;;;6125705;23;20053;-87
2023/07/29 01:38:20;;;;;;;20.85;12.60;;;17.60;99.90;;;;;;6067482;23;20029;-87
2023/07/29 01:40:57;;;;;;;23.33;12.40;;;17.50;99.90;;;;;;6099947;23;20026;-87
2023/07/29 01:43:33;;;;;;;21.30;12.30;;;17.50;99.90;;;;;;6126660;23;20018;-87
2023/07/29 01:46:11;;;;;;;20.45;11.65;;;17.50;99.90;;;;;;6125643;23;20335;-87
2023/07/29 01:48:43;;;;;;;19.10;11.35;;;17.50;99.90;;;;;;6099380;23;20056;-87
2023/07/29 01:51:18;;;;;;;17.20;11.50;;;17.40;99.90;;;;;;6124923;23;20076;-87
2023/07/29 01:53:49;;;;;;;20.13;12.27;;;17.40;99.90;;;;;;6127927;23;20014;-87
2023/07/29 01:56:15;;;;;;;18.00;11.77;;;17.30;99.90;;;;;;6103505;23;20020;-87
2023/07/29 01:59:09;;;;;;;18.40;11.60;;;17.30;99.90;;;;;;6098994;23;20032;-87
2023/07/29 02:01:41;;;;;;;;;;;17.30;99.90;;;;;;6099482;23;20014;-87
2023/07/29 02:04:13;;;;;;;20.38;10.93;;;17.30;99.90;;;;;;6125650;23;20239;-87
2023/07/29 02:10:31;;;;;;;16.50;10.65;;;17.30;99.90;;;;;;6101521;23;20061;-86
2023/07/29 02:13:06;;;;;;;17.23;10.77;;;17.30;99.90;;;;;;6069803;23;20033;-87
2023/07/29 02:15:50;;;;;;;18.58;11.05;;;17.30;99.90;;;;;;6097536;23;20069;-87
2023/07/29 02:18:34;;;;;;;17.85;10.75;;;17.30;99.90;;;;;;6098934;23;20081;-87
2023/07/29 02:21:11;;;;;;;19.15;11.05;;;17.30;99.90;;;;;;6098241;23;20022;-87
2023/07/29 02:23:46;;;;;;;19.38;11.00;;;17.30;99.90;;;;;;6071964;23;20077;-87
2023/07/29 02:26:27;;;;;;;17.10;10.20;;;17.20;99.90;;;;;;6098420;23;20011;-87
2023/07/29 02:29:11;;;;;;;17.73;10.88;;;17.30;99.90;;;;;;6072853;23;20069;-87
2023/07/29 02:31:38;;;;;;;17.38;10.52;;;17.30;99.90;;;;;;6098808;23;20127;-87
2023/07/29 02:34:13;;;;;;;18.65;10.60;;;17.30;99.90;;;;;;6071594;23;20025;-87
2023/07/29 02:36:55;;;;;;;17.33;9.98;;;17.30;99.90;;;;;;6073289;23;20026;-87
2023/07/29 02:39:24;;;;;;;17.73;10.45;;;17.30;99.90;;;;;;6072694;23;20351;-87
2023/07/29 02:42:06;;;;;;;16.20;10.18;;;17.40;99.90;;;;;;6070682;23;20022;-87
2023/07/29 02:44:39;;;;;;;15.65;9.50;;;17.50;99.90;;;;;;6071947;23;20018;-87
2023/07/29 02:47:07;;;;;;;16.23;9.70;;;17.30;99.90;;;;;;6098203;23;20054;-87
2023/07/29 02:49:36;;;;;;;15.10;9.20;;;17.30;99.90;;;;;;6071466;23;20083;-87
2023/07/29 02:52:08;;;;;;;16.77;9.85;;;17.30;99.90;;;;;;6072772;23;20026;-87
2023/07/29 02:54:40;;;;;;;15.27;8.82;;;17.30;99.90;;;;;;6071623;23;20693;-87
2023/07/29 02:57:08;;;;;;;15.50;9.32;;;17.20;99.90;;;;;;6072229;23;20033;-87
2023/07/29 02:59:40;;;;;;;13.93;8.40;;;17.20;99.90;;;;;;6072216;23;20034;-87
2023/07/29 03:02:16;;;;;;;16.00;8.45;;;17.10;99.90;;;;;;6071516;23;20510;-87
2023/07/29 03:04:44;;;;;;;13.68;7.18;;;17.20;99.90;;;;;;6071547;23;20018;-87
2023/07/29 03:07:16;;;;;;;16.08;7.70;;;17.10;99.90;;;;;;6098063;23;20022;-87
2023/07/29 03:09:46;;;;;;;13.68;6.88;;;17.10;99.90;;;;;;6096372;23;20018;-87
2023/07/29 03:12:24;;;;;;;13.63;7.47;;;17.10;99.90;;;;;;6072307;23;20073;-87
2023/07/29 03:14:56;;;;;;;12.93;6.97;;;17.00;99.90;;;;;;6071521;23;20097;-87
2023/07/29 03:17:25;;;;;;;13.30;6.53;;;17.20;99.90;;;;;;6070926;23;20474;-87
2023/07/29 03:19:59;;;;;;;12.52;6.57;;;17.00;99.90;;;;;;6071536;23;20355;-87
2023/07/29 03:22:31;;;;;;;13.77;6.63;;;17.00;99.90;;;;;;6097976;23;20026;-87
2023/07/29 03:25:06;;;;;;;12.10;6.18;;;17.00;99.90;;;;;;6096978;23;20029;-86
2023/07/29 03:27:33;;;;;;;11.75;6.18;;;17.00;99.90;;;;;;6070631;23;20065;-87
2023/07/29 03:30:05;;;;;;;12.15;6.05;;;17.00;99.90;;;;;;6071216;23;20037;-87
2023/07/29 03:32:45;;;;;;;11.70;5.95;;;17.00;99.90;;;;;;6071683;23;20018;-87
2023/07/29 03:35:11;;;;;;;14.05;6.22;;;17.00;99.90;;;;;;6147167;23;20113;-87
2023/07/29 03:37:40;;;;;;;13.43;6.80;;;17.00;99.90;;;;;;6155495;23;20411;-87
2023/07/29 03:40:09;;;;;;;11.90;6.25;;;17.30;99.90;;;;;;6130267;23;20045;-87
2023/07/29 03:42:38;;;;;;;12.77;6.47;;;16.80;99.90;;;;;;6155283;23;20053;-87
2023/07/29 03:45:09;;;;;;;14.00;6.22;;;16.80;99.90;;;;;;6155287;23;20013;-87
2023/07/29 03:47:53;;;;;;;12.27;6.18;;;16.80;99.90;;;;;;6132464;23;20017;-87
2023/07/29 03:50:25;;;;;;;;;;;16.80;99.90;;;;;;6130375;23;20017;-87
2023/07/29 03:53:00;;;;;;;13.80;5.70;;;16.70;99.90;;;;;;6128283;23;19916;-87
2023/07/29 03:55:29;;;;;;;12.52;5.38;;;16.60;99.90;;;;;;6129873;23;20096;-87
2023/07/29 03:57:59;;;;;;;10.50;5.38;;;16.60;99.90;;;;;;6154774;23;20093;-87
2023/07/29 04:00:31;;;;;;;11.30;5.63;;;16.60;99.90;;;;;;6129246;23;20465;-87
2023/07/29 04:03:00;;;;;;;12.32;5.30;;;16.60;99.90;;;;;;6128265;23;20021;-87
2023/07/29 04:05:28;;;;;;;11.48;5.28;;;16.60;99.90;;;;;;6153249;23;20373;-87
2023/07/29 04:08:12;;;;;;;10.82;5.18;;;16.60;99.90;;;;;;6128727;23;20067;-87
2023/07/29 04:11:06;;;;;;;10.75;5.00;;;16.60;99.90;;;;;;6155447;23;20053;-87
2023/07/29 04:13:37;;;;;;;11.30;4.80;;;16.60;99.90;;;;;;6153889;23;20021;-87
2023/07/29 04:16:09;;;;;;;10.70;4.80;;;16.70;99.90;;;;;;6154729;23;20014;-86
2023/07/29 04:18:38;;;;;;;10.10;4.50;;;16.90;99.90;;;;;;6129330;23;20022;-87
2023/07/29 04:21:09;;;;;;;10.52;4.47;;;16.70;99.90;;;;;;6128411;23;20013;-87
2023/07/29 04:23:41;;;;;;;10.10;4.63;;;16.70;99.90;;;;;;6154935;23;20446;-87
2023/07/29 04:26:13;;;;;;;11.55;4.32;;;16.70;99.90;;;;;;6154822;23;20053;-87
2023/07/29 04:28:42;;;;;;;10.23;4.28;;;16.70;99.90;;;;;;6155646;23;20018;-87
2023/07/29 04:31:17;;;;;;;9.55;4.53;;;16.70;99.90;;;;;;6129013;23;20013;-87
2023/07/29 04:33:47;;;;;;;10.95;4.70;;;16.70;99.90;;;;;;6152953;23;20084;-87
2023/07/29 04:36:21;;;;;;;10.32;4.82;;;17.00;99.90;;;;;;6155687;23;20017;-87
2023/07/29 04:38:50;;;;;;;9.82;4.35;;;16.80;99.90;;;;;;6128192;23;20092;-87
2023/07/29 04:41:22;;;;;;;9.20;3.85;;;16.80;99.90;;;;;;6103762;23;20080;-87
2023/07/29 04:43:53;;;;;;;10.23;4.20;;;17.40;99.90;;;;;;6154412;23;20398;-87
2023/07/29 04:47:00;;;;;;;8.90;3.80;;;16.90;99.90;;;;;;6128829;23;20018;-87
2023/07/29 04:49:38;;;;;;;8.18;3.40;;;16.90;99.90;;;;;;6007694;23;20032;-87
2023/07/29 04:52:09;;;;;;;10.32;3.63;;;16.90;99.90;;;;;;5984254;23;20022;-87
2023/07/29 04:54:38;;;;;;;9.40;3.80;;;16.90;99.90;;;;;;5990359;23;20020;-87
2023/07/29 04:57:04;;;;;;;9.52;3.90;;;17.00;99.90;;;;;;5996878;23;20015;-87
2023/07/29 04:59:35;;;;;;;12.27;3.72;;;17.00;99.90;;;;;;5985526;23;20080;-87
2023/07/29 05:02:07;;;;;;;10.25;3.40;;;17.00;99.90;;;;;;6007512;23;20016;-87
2023/07/29 05:04:33;;;;;;;10.15;3.45;;;17.00;99.90;;;;;;6043578;23;20024;-86
2023/07/29 05:07:08;;;;;;;8.55;3.10;;;17.00;99.90;;;;;;6128944;23;20096;-86
2023/07/29 05:09:33;;;;;;;9.57;3.17;;;17.00;99.90;;;;;;6154424;23;20041;-87
2023/07/29 05:11:59;;;;;;;10.60;3.33;;;17.00;99.90;;;;;;6155176;23;20026;-86
2023/07/29 05:14:28;;;;;;;10.13;3.75;;;17.70;99.90;;;;;;6128970;23;20032;-87
2023/07/29 05:16:57;;;;;;;8.48;3.47;;;17.00;99.90;;;;;;6153981;23;20152;-86
2023/07/29 05:19:31;;;;;;;9.50;3.42;;;17.10;99.90;;;;;;6128355;23;20022;-86
2023/07/29 05:22:00;;;;;;;8.63;3.42;;;17.10;99.90;;;;;;6155024;23;20013;-86
2023/07/29 05:24:32;;;;;;;8.90;3.38;;;17.10;99.90;;;;;;6103423;23;20024;-87
2023/07/29 05:27:03;;;;;;;9.43;3.65;;;17.70;99.90;;;;;;6128812;23;20021;-86
2023/07/29 05:29:29;;;;;;;9.73;3.35;;;17.20;99.90;;;;;;6154496;23;20197;-86
2023/07/29 05:32:01;;;;;;;9.68;3.15;;;17.20;99.90;;;;;;6128218;23;20017;-86
2023/07/29 05:34:35;;;;;;;8.90;3.35;;;17.20;99.90;;;;;;6127651;23;20025;-85
2023/07/29 05:37:01;;;;;;;11.93;4.07;;;17.20;99.90;;;;;;6127445;23;20100;-86
2023/07/29 05:39:37;;;;;;;9.32;3.83;;;17.30;99.90;;;;;;6128584;23;20469;-86
2023/07/29 05:42:06;;;;;;;11.10;4.35;;;17.30;99.90;;;;;;6129072;23;20044;-86
2023/07/29 05:44:32;;;;;;;11.70;4.65;;;17.30;99.90;;;;;;6126899;23;20108;-86
2023/07/29 05:47:00;;;;;;;9.65;4.30;;;17.90;99.90;;;;;;6154930;23;20017;-90
2023/07/29 05:49:35;;;;;;;10.05;4.10;;;17.30;99.90;;;;;;6127933;23;20017;-84
2023/07/29 05:52:01;;;;;;;10.15;4.63;;;17.40;99.90;;;;;;6156386;23;20013;-84
2023/07/29 05:54:27;;;;;;;11.60;4.72;;;17.40;99.90;;;;;;6130609;23;20488;-85
2023/07/29 05:57:05;;;;;;;11.57;4.53;;;17.50;99.90;;;;;;6152395;23;20101;-84
2023/07/29 05:59:30;;;;;;;12.68;5.30;;;17.40;99.90;;;;;;6129071;23;20018;-86
2023/07/29 06:01:56;;;;;;;12.15;5.15;;;17.50;99.90;;;;;;6156193;23;20017;-86
2023/07/29 06:04:46;;;;;;;12.68;5.40;;;17.50;99.90;;;;;;6129313;23;20013;-86
2023/07/29 06:07:33;;;;;;;12.05;5.88;;;17.30;99.90;;;;;;6130882;23;20024;-86
2023/07/29 06:09:58;;;;;;;11.65;5.55;;;18.00;99.90;;;;;;6126607;23;20017;-87
2023/07/29 06:13:14;;;;;;;13.10;5.32;;;17.60;99.90;;;;;;6155136;23;20136;-86
2023/07/29 06:15:40;;;;;;;13.13;5.60;;;17.60;99.90;;;;;;6129504;23;20067;-85
2023/07/29 06:18:20;;;;;;;13.45;6.43;;;17.70;99.90;;;;;;6130605;23;20446;-84
2023/07/29 06:20:46;;;;;;;14.18;5.75;;;17.70;99.90;;;;;;6156123;23;20025;-84
2023/07/29 06:23:12;;;;;;;13.15;5.95;;;17.80;99.90;;;;;;6156995;23;20005;-85
2023/07/29 06:26:34;;;;;;;12.60;5.50;;;17.80;99.90;;;;;;6154780;23;20021;-84
2023/07/29 06:29:12;;;;;;;15.73;6.78;;;17.90;99.90;;;;;;6157588;23;20032;-85
2023/07/29 06:31:37;;;;;;;21.70;6.95;;;18.00;99.90;;;;;;6156373;23;20044;-84
2023/07/29 06:34:03;;;;;;;13.35;5.80;;;18.10;99.90;;;;;;6131053;23;20441;-85
2023/07/29 06:36:28;;;;;;;11.68;6.10;;;18.10;99.90;;;;;;6133786;23;20021;-85
2023/07/29 06:39:07;;;;;;;12.23;5.75;;;18.20;99.90;;;;;;6158969;23;20021;-85
2023/07/29 06:41:33;;;;;;;12.25;5.90;;;18.20;99.90;;;;;;6131948;23;20036;-85
2023/07/29 06:43:59;;;;;;;13.20;5.95;;;18.30;99.90;;;;;;6132726;23;20449;-85
2023/07/29 06:46:25;;;;;;;13.40;5.60;;;18.30;99.90;;;;;;6158755;23;20010;-85
2023/07/29 06:49:02;;;;;;;14.30;6.43;;;18.30;99.90;;;;;;6131015;23;20018;-85
2023/07/29 06:51:32;;;;;;;13.50;6.53;;;18.20;99.90;;;;;;6157744;23;20097;-85
2023/07/29 06:54:17;;;;;;;15.05;7.03;;;18.30;99.90;;;;;;6130742;23;20096;-85
2023/07/29 06:56:43;;;;;;;12.32;6.10;;;18.40;99.90;;;;;;6158625;23;20013;-84
2023/07/29 06:59:24;;;;;;;12.95;6.68;;;18.40;99.90;;;;;;6159521;23;20070;-84
2023/07/29 07:01:50;;;;;;;13.27;6.47;;;18.40;99.90;;;;;;6132778;23;20045;-84
2023/07/29 07:04:16;;;;;;;15.07;6.60;;;18.60;99.90;;;;;;6133355;23;20076;-83
2023/07/29 07:06:41;;;;;;;13.20;6.47;;;18.70;99.90;;;;;;6132785;23;20021;-83
2023/07/29 07:09:07;;;;;;;13.13;6.57;;;18.60;99.90;;;;;;6158752;23;20389;-84
2023/07/29 07:11:32;;;;;;;13.20;6.50;;;18.50;99.90;;;;;;6133051;23;20021;-84
2023/07/29 07:13:58;;;;;;;11.50;5.88;;;18.60;99.90;;;;;;6132530;23;20479;-84
2023/07/29 07:16:23;;;;;;;14.35;6.43;;;18.60;99.90;;;;;;6132245;23;20104;-84
2023/07/29 07:18:49;;;;;;;13.32;6.70;;;18.90;99.90;;;;;;6130909;23;20017;-85
2023/07/29 07:21:15;;;;;;;14.95;6.43;;;18.80;99.90;;;;;;6157362;23;20021;-85
2023/07/29 07:23:41;;;;;;;16.00;6.20;;;19.00;99.90;;;;;;6157075;23;20028;-85
2023/07/29 07:26:06;;;;;;;13.23;6.40;;;18.80;99.90;;;;;;6130611;23;20065;-85
2023/07/29 07:28:32;;;;;;;20.55;6.90;;;18.80;99.90;;;;;;6157355;23;20024;-85
2023/07/29 07:30:57;;;;;;;12.07;6.95;;;18.80;99.90;;;;;;6157378;23;20017;-85
2023/07/29 07:33:23;;;;;;;13.75;6.85;;;18.80;99.90;;;;;;6133457;23;20513;-85
2023/07/29 07:35:49;;;;;;;13.27;6.78;;;18.90;99.90;;;;;;6132847;23;20030;-84
2023/07/29 07:38:17;;;;;;;12.73;7.13;;;19.00;99.90;;;;;;6158839;23;20158;-85
2023/07/29 07:40:54;;;;;;;12.90;7.05;;;19.00;99.90;;;;;;6134612;23;20014;-88
2023/07/29 07:43:19;;;;;;;12.20;6.60;;;19.10;99.90;;;;;;6161168;23;20018;-87
2023/07/29 07:45:45;;;;;;;15.63;7.47;;;19.30;99.90;;;;;;6131452;23;20017;-85
2023/07/29 07:48:12;;;;;;;11.80;6.78;;;19.20;99.90;;;;;;6130583;23;20021;-85
2023/07/29 07:50:38;;;;;;;12.18;6.30;;;19.40;99.90;;;;;;6130959;23;20017;-85
2023/07/29 07:53:04;;;;;;;12.45;6.47;;;19.30;99.90;;;;;;6129569;23;20350;-85
2023/07/29 07:55:30;;;;;;;11.52;6.57;;;19.40;99.90;;;;;;6128040;23;20024;-85
2023/07/29 07:57:58;;;;;;;12.93;6.20;;;19.50;99.90;;;;;;6154595;23;20020;-86
2023/07/29 08:00:23;;;;;;;12.32;5.43;;;19.60;99.90;;;;;;6127109;23;20022;-85
2023/07/29 08:02:49;;;;;;;11.40;5.85;;;19.60;99.90;;;;;;6128105;23;20009;-84
2023/07/29 08:05:15;;;;;;;10.65;5.88;;;19.70;99.90;;;;;;6127034;23;20017;-85
2023/07/29 08:07:40;;;;;;;13.88;6.28;;;19.60;99.90;;;;;;6128495;23;20021;-85
2023/07/29 08:10:06;;;;;;;12.48;5.45;;;19.60;99.90;;;;;;6129858;23;20022;-85
2023/07/29 08:12:32;;;;;;;11.02;5.00;;;19.50;99.90;;;;;;6081674;23;1108676;-85
2023/07/29 08:14:58;;;;;;;10.43;4.75;;;19.70;99.90;;;;;;6129623;23;20029;-85
2023/07/29 08:17:23;;;;;;;9.80;4.50;;;19.90;99.90;;;;;;6129750;23;20014;-85
2023/07/29 08:19:51;;;;;;;10.88;4.72;;;20.00;99.90;;;;;;6154809;23;20453;-87
2023/07/29 08:22:20;;;;;;;11.40;4.72;;;19.90;99.90;;;;;;6130330;23;20374;-88
2023/07/29 08:24:45;;;;;;;12.68;4.80;;;19.80;99.90;;;;;;6156036;23;20063;-85
2023/07/29 08:27:11;;;;;;;8.57;4.32;;;19.70;99.90;;;;;;6155004;23;20018;-85
2023/07/29 08:29:37;;;;;;;12.20;4.50;;;19.70;99.90;;;;;;6130797;23;20042;-86
2023/07/29 08:32:03;;;;;;;11.40;4.55;;;19.90;99.90;;;;;;6129597;23;20327;-85
2023/07/29 08:34:28;;;;;;;9.70;4.20;;;19.80;99.90;;;;;;6129463;23;20337;-85
2023/07/29 08:36:57;;;;;;;10.45;4.30;;;19.90;99.90;;;;;;6130928;23;20080;-84
2023/07/29 08:39:22;;;;;;;9.57;4.32;;;19.70;99.90;;;;;;6155448;23;20025;-86
2023/07/29 08:42:05;;;;;;;10.68;4.50;;;19.70;99.90;;;;;;6156349;23;20041;-85
2023/07/29 08:44:39;;;;;;;9.00;4.22;;;19.60;99.90;;;;;;6157475;23;20076;-85
2023/07/29 08:47:05;;;;;;;9.93;4.00;;;19.70;99.90;;;;;;6155235;23;20497;-83
2023/07/29 08:49:32;;;;;;;9.40;4.20;;;19.80;99.90;;;;;;6155726;23;20069;-83
2023/07/29 08:51:58;;;;;;;9.73;4.15;;;19.80;99.90;;;;;;6156568;23;20024;-83
2023/07/29 08:54:24;;;;;;;13.10;3.72;;;19.80;99.90;;;;;;6128471;23;20014;-83
2023/07/29 08:56:50;;;;;;;8.25;3.63;;;19.90;99.90;;;;;;6127026;23;20025;-83
2023/07/29 08:59:17;;;;;;;12.15;3.70;;;19.80;99.90;;;;;;6129077;23;20028;-83
2023/07/29 09:01:42;;;;;;;8.15;3.35;;;20.00;99.90;;;;;;6127782;23;20020;-83
2023/07/29 09:04:09;;;;;;;9.65;3.67;;;20.30;99.90;;;;;;6151981;23;20052;-83
2023/07/29 09:06:36;;;;;;;9.02;3.65;;;20.30;99.90;;;;;;6154788;23;20100;-83
2023/07/29 09:09:02;;;;;;;10.77;3.55;;;20.30;99.90;;;;;;6127909;23;20018;-83
2023/07/29 09:11:28;;;;;;;10.05;3.85;;;20.50;99.90;;;;;;6155063;23;20092;-83
2023/07/29 09:13:54;;;;;;;9.57;3.60;;;20.80;99.90;;;;;;6127972;23;20021;-83
2023/07/29 09:16:23;;;;;;;10.50;3.92;;;20.90;99.90;;;;;;6127537;23;20375;-84
2023/07/29 09:18:50;;;;;;;10.20;4.15;;;21.10;99.90;;;;;;6155439;23;20017;-84
2023/07/29 09:21:28;;;;;;;8.75;3.40;;;21.00;99.90;;;;;;6128219;23;20009;-84
2023/07/29 09:23:54;;;;;;;8.93;3.28;;;21.30;99.90;;;;;;6129443;23;20024;-84
2023/07/29 09:26:27;;;;;;;8.10;2.80;;;21.50;99.90;;;;;;6129390;23;20037;-83
2023/07/29 09:28:57;;;;;;;7.90;3.15;;;21.70;99.90;;;;;;6127901;23;20125;-83
2023/07/29 09:31:25;;;;;;;8.93;3.03;;;21.50;99.90;;;;;;6129406;23;20014;-84
2023/07/29 09:33:59;;;;;;;9.18;3.25;;;21.60;99.90;;;;;;6129221;23;20370;-83
2023/07/29 09:36:25;;;;;;;8.88;3.00;;;21.70;99.90;;;;;;6128291;23;20478;-83
2023/07/29 09:38:55;;;;;;;9.07;3.10;;;21.50;99.90;;;;;;6129780;23;20021;-83
2023/07/29 09:41:25;;;;;;;10.63;2.83;;;21.60;99.90;;;;;;6156167;23;20325;-83
2023/07/29 09:44:02;;;;;;;8.18;2.72;;;21.70;99.90;;;;;;6155492;23;20017;-84
2023/07/29 09:46:37;;;;;;;7.22;2.20;;;21.70;99.90;;;;;;6129630;23;20017;-83
2023/07/29 09:49:07;;;;;;;7.18;2.45;;;21.80;99.90;;;;;;6129213;23;20013;-85
2023/07/29 09:51:39;;;;;;;8.32;2.58;;;21.70;99.90;;;;;;6155414;23;20064;-82
2023/07/29 09:54:04;;;;;;;8.63;2.88;;;21.80;99.90;;;;;;6155386;23;20017;-84
2023/07/29 09:56:30;;;;;;;8.85;2.72;;;21.90;99.90;;;;;;6128365;23;20071;-83
2023/07/29 09:58:59;;;;;;;7.97;3.00;;;21.90;99.90;;;;;;6129212;23;20024;-84
2023/07/29 10:01:25;;;;;;;7.25;2.65;;;21.80;99.90;;;;;;6155621;23;20014;-83
2023/07/29 10:03:51;;;;;;;6.68;2.60;;;21.60;99.90;;;;;;6127617;23;20076;-84
2023/07/29 10:06:18;;;;;;;7.97;2.50;;;21.70;99.90;;;;;;6130243;23;20438;-84
2023/07/29 10:08:44;;;;;;;7.50;2.42;;;22.10;99.90;;;;;;6129261;23;20024;-87
2023/07/29 10:14:38;;;;;;;7.63;2.20;;;22.10;99.90;;;;;;6113864;23;20100;-85
2023/07/29 10:17:05;;;;;;;8.15;2.70;;;22.40;99.90;;;;;;6129172;23;20510;-84
2023/07/29 10:19:31;;;;;;;9.75;2.65;;;22.30;99.90;;;;;;6159258;23;20624;-85
2023/07/29 10:22:01;;;;;;;7.68;2.50;;;22.40;99.90;;;;;;6130322;23;20117;-87
2023/07/29 10:25:01;;;;;;;8.25;2.85;;;22.60;99.90;;;;;;6155726;23;20076;-85
2023/07/29 10:27:29;;;;;;;7.10;2.58;;;22.80;99.90;;;;;;6128769;23;20100;-84
2023/07/29 10:30:03;;;;;;;20.23;4.60;;;23.10;99.90;;;;;;6128466;23;20021;-84
2023/07/29 10:32:34;;;;;;;11.90;2.60;;;23.20;99.90;;;;;;6103493;23;20014;-84
2023/07/29 10:35:03;;;;;;;7.20;2.70;;;23.40;99.90;;;;;;6128821;23;20032;-84
2023/07/29 10:40:25;;;;;;;9.75;2.83;;;23.10;99.90;;;;;;6153807;23;20452;-88
